Big Bear Station Historical Data
Daily Summary for March 31, 2019 Units:  Both    English   Metric
Next Day »
Daily Weekly Monthly Yearly Custom
  High: Low: Average:
Temperature: 60.3 °F /  15.7 °C 26.6 °F /  -3 °C 41 °F /  5 °C
Dew Point: 31.8 °F /  -0.1 °C 22.1 °F /  -5.5 °C 25.3 °F /  -3.7 °C
Humidity: 88% 29% 58%
Wind Speed: 6.3mph /  10.1km/h - 1.1mph /  1.8km/h
Wind Gust: -999.0mph /  -1607.7km/h - -
Wind- - SW
Pressure: 23.59 in /  798.8 hPa 23.52 in /  796.4 hPa -
Precipitation: 0.00 in /  0 mm    
Historical Graphs
 
 
Tabular Data for March 31, 2019
Time Temperature Dew Point Pressure Wind Wind Speed Wind Gust Humidity Rainfall Rate (Hourly)
00:03 31.6 °F /  -0.2 °C 23.3 °F /  -4.8 °C 23.56in /  797.7hPa Calm   -999.0mph /  -1607.7km/h 71% 0.00in /  0mm
00:18 31.1 °F /  -0.5 °C 23.1 °F /  -4.9 °C 23.56in /  797.7hPa Calm   -999.0mph /  -1607.7km/h 72% 0.00in /  0mm
00:33 30.6 °F /  -0.8 °C 22.3 °F /  -5.4 °C 23.55in /  797.4hPa Calm   -999.0mph /  -1607.7km/h 71% 0.00in /  0mm
00:48 30.0 °F /  -1.1 °C 22.7 °F /  -5.2 °C 23.56in /  797.7hPa Calm   -999.0mph /  -1607.7km/h 74% 0.00in /  0mm
01:04 30.0 °F /  -1.1 °C 22.7 °F /  -5.2 °C 23.55in /  797.4hPa Calm   -999.0mph /  -1607.7km/h 74% 0.00in /  0mm
01:19 29.7 °F /  -1.3 °C 22.1 °F /  -5.5 °C 23.55in /  797.4hPa Calm   -999.0mph /  -1607.7km/h 73% 0.00in /  0mm
01:34 29.7 °F /  -1.3 °C 22.7 °F /  -5.2 °C 23.56in /  797.7hPa Calm   -999.0mph /  -1607.7km/h 75% 0.00in /  0mm
01:49 29.7 °F /  -1.3 °C 23.7 °F /  -4.6 °C 23.55in /  797.4hPa Calm   -999.0mph /  -1607.7km/h 78% 0.00in /  0mm
02:04 29.1 °F /  -1.6 °C 23.7 °F /  -4.6 °C 23.55in /  797.4hPa Calm   -999.0mph /  -1607.7km/h 80% 0.00in /  0mm
02:20 28.9 °F /  -1.7 °C 23.2 °F /  -4.9 °C 23.55in /  797.4hPa Calm   -999.0mph /  -1607.7km/h 79% 0.00in /  0mm
02:35 28.9 °F /  -1.7 °C 22.3 °F /  -5.4 °C 23.55in /  797.4hPa Calm   -999.0mph /  -1607.7km/h 76% 0.00in /  0mm
02:50 28.2 °F /  -2.1 °C 22.5 °F /  -5.3 °C 23.55in /  797.4hPa Calm   -999.0mph /  -1607.7km/h 79% 0.00in /  0mm
03:05 28.2 °F /  -2.1 °C 22.8 °F /  -5.1 °C 23.55in /  797.4hPa Calm   -999.0mph /  -1607.7km/h 80% 0.00in /  0mm
03:20 27.9 °F /  -2.3 °C 23.1 °F /  -4.9 °C 23.55in /  797.4hPa Calm   -999.0mph /  -1607.7km/h 82% 0.00in /  0mm
03:36 27.9 °F /  -2.3 °C 23.7 °F /  -4.6 °C 23.54in /  797.1hPa Calm   -999.0mph /  -1607.7km/h 84% 0.00in /  0mm
03:51 27.9 °F /  -2.3 °C 24.0 °F /  -4.4 °C 23.54in /  797.1hPa Calm   -999.0mph /  -1607.7km/h 85% 0.00in /  0mm
04:06 27.5 °F /  -2.5 °C 23.6 °F /  -4.7 °C 23.54in /  797.1hPa Calm   -999.0mph /  -1607.7km/h 85% 0.00in /  0mm
04:21 27.9 °F /  -2.3 °C 24.3 °F /  -4.3 °C 23.54in /  797.1hPa Calm   -999.0mph /  -1607.7km/h 86% 0.00in /  0mm
04:36 27.7 °F /  -2.4 °C 23.8 °F /  -4.6 °C 23.54in /  797.1hPa Calm   -999.0mph /  -1607.7km/h 85% 0.00in /  0mm
04:52 27.3 °F /  -2.6 °C 23.1 °F /  -4.9 °C 23.54in /  797.1hPa Calm   -999.0mph /  -1607.7km/h 84% 0.00in /  0mm
05:07 26.8 °F /  -2.9 °C 22.9 °F /  -5.1 °C 23.54in /  797.1hPa Calm   -999.0mph /  -1607.7km/h 85% 0.00in /  0mm
05:22 27.0 °F /  -2.8 °C 23.4 °F /  -4.8 °C 23.54in /  797.1hPa Calm   -999.0mph /  -1607.7km/h 86% 0.00in /  0mm
05:37 27.0 °F /  -2.8 °C 23.6 °F /  -4.7 °C 23.54in /  797.1hPa Calm   -999.0mph /  -1607.7km/h 87% 0.00in /  0mm
05:53 27.0 °F /  -2.8 °C 23.6 °F /  -4.7 °C 23.54in /  797.1hPa Calm   -999.0mph /  -1607.7km/h 87% 0.00in /  0mm
06:08 26.8 °F /  -2.9 °C 23.5 °F /  -4.7 °C 23.54in /  797.1hPa Calm   -999.0mph /  -1607.7km/h 87% 0.00in /  0mm
06:23 27.0 °F /  -2.8 °C 23.6 °F /  -4.7 °C 23.54in /  797.1hPa Calm   -999.0mph /  -1607.7km/h 87% 0.00in /  0mm
06:38 26.8 °F /  -2.9 °C 23.7 °F /  -4.6 °C 23.54in /  797.1hPa Calm   -999.0mph /  -1607.7km/h 88% 0.00in /  0mm
06:53 26.6 °F /  -3 °C 23.5 °F /  -4.7 °C 23.55in /  797.4hPa Calm   -999.0mph /  -1607.7km/h 88% 0.00in /  0mm
07:09 26.6 °F /  -3 °C 23.5 °F /  -4.7 °C 23.55in /  797.4hPa Calm   -999.0mph /  -1607.7km/h 88% 0.00in /  0mm
07:24 27.0 °F /  -2.8 °C 23.9 °F /  -4.5 °C 23.55in /  797.4hPa Calm   -999.0mph /  -1607.7km/h 88% 0.00in /  0mm
07:39 27.0 °F /  -2.8 °C 23.9 °F /  -4.5 °C 23.55in /  797.4hPa Calm   -999.0mph /  -1607.7km/h 88% 0.00in /  0mm
07:54 27.9 °F /  -2.3 °C 24.5 °F /  -4.2 °C 23.56in /  797.7hPa Calm   -999.0mph /  -1607.7km/h 87% 0.00in /  0mm
08:09 28.8 °F /  -1.8 °C 25.1 °F /  -3.8 °C 23.56in /  797.7hPa Calm   -999.0mph /  -1607.7km/h 86% 0.00in /  0mm
08:25 30.4 °F /  -0.9 °C 26.1 °F /  -3.3 °C 23.56in /  797.7hPa Calm   -999.0mph /  -1607.7km/h 84% 0.00in /  0mm
08:40 34.9 °F /  1.6 °C 26.8 °F /  -2.9 °C 23.56in /  797.7hPa Calm   -999.0mph /  -1607.7km/h 72% 0.00in /  0mm
08:55 40.1 °F /  4.5 °C 23.9 °F /  -4.5 °C 23.56in /  797.7hPa South 1.7mph /  2.7km/h -999.0mph /  -1607.7km/h 52% 0.00in /  0mm
09:10 41.2 °F /  5.1 °C 23.5 °F /  -4.7 °C 23.56in /  797.7hPa ESE 1.1mph /  1.8km/h -999.0mph /  -1607.7km/h 49% 0.00in /  0mm
09:25 42.4 °F /  5.8 °C 23.6 °F /  -4.7 °C 23.56in /  797.7hPa Calm   -999.0mph /  -1607.7km/h 47% 0.00in /  0mm
09:41 44.1 °F /  6.7 °C 23.6 °F /  -4.7 °C 23.57in /  798.1hPa North 3.2mph /  5.1km/h -999.0mph /  -1607.7km/h 44% 0.00in /  0mm
09:56 45.1 °F /  7.3 °C 22.8 °F /  -5.1 °C 23.57in /  798.1hPa NW 5.3mph /  8.5km/h -999.0mph /  -1607.7km/h 41% 0.00in /  0mm
10:11 45.9 °F /  7.7 °C 22.3 °F /  -5.4 °C 23.58in /  798.4hPa NW 2.7mph /  4.3km/h -999.0mph /  -1607.7km/h 39% 0.00in /  0mm
10:26 46.6 °F /  8.1 °C 22.3 °F /  -5.4 °C 23.58in /  798.4hPa Calm   -999.0mph /  -1607.7km/h 38% 0.00in /  0mm
10:42 48.2 °F /  9 °C 23.1 °F /  -4.9 °C 23.58in /  798.4hPa ENE 1.7mph /  2.7km/h -999.0mph /  -1607.7km/h 37% 0.00in /  0mm
10:57 50.4 °F /  10.2 °C 23.8 °F /  -4.6 °C 23.59in /  798.8hPa Calm   -999.0mph /  -1607.7km/h 35% 0.00in /  0mm
11:12 51.4 °F /  10.8 °C 24.6 °F /  -4.1 °C 23.58in /  798.4hPa NE 3.7mph /  6km/h -999.0mph /  -1607.7km/h 35% 0.00in /  0mm
11:27 52.9 °F /  11.6 °C 24.6 °F /  -4.1 °C 23.58in /  798.4hPa NNE 2.7mph /  4.3km/h -999.0mph /  -1607.7km/h 33% 0.00in /  0mm
11:42 54.0 °F /  12.2 °C 25.5 °F /  -3.6 °C 23.58in /  798.4hPa ESE 1.7mph /  2.7km/h -999.0mph /  -1607.7km/h 33% 0.00in /  0mm
11:58 53.4 °F /  11.9 °C 24.3 °F /  -4.3 °C 23.58in /  798.4hPa NNW 3.7mph /  6km/h -999.0mph /  -1607.7km/h 32% 0.00in /  0mm
12:13 55.8 °F /  13.2 °C 24.8 °F /  -4 °C 23.58in /  798.4hPa SSE 3.2mph /  5.1km/h -999.0mph /  -1607.7km/h 30% 0.00in /  0mm
12:28 54.5 °F /  12.5 °C 22.9 °F /  -5.1 °C 23.57in /  798.1hPa SE 1.1mph /  1.8km/h -999.0mph /  -1607.7km/h 29% 0.00in /  0mm
12:44 54.9 °F /  12.7 °C 24.8 °F /  -4 °C 23.56in /  797.7hPa NE 6.3mph /  10.1km/h -999.0mph /  -1607.7km/h 31% 0.00in /  0mm
12:59 57.2 °F /  14 °C 26.8 °F /  -2.9 °C 23.56in /  797.7hPa NW 4.7mph /  7.6km/h -999.0mph /  -1607.7km/h 31% 0.00in /  0mm
13:14 56.8 °F /  13.8 °C 24.9 °F /  -3.9 °C 23.56in /  797.7hPa NNE 2.7mph /  4.3km/h -999.0mph /  -1607.7km/h 29% 0.00in /  0mm
13:29 57.0 °F /  13.9 °C 25.9 °F /  -3.4 °C 23.56in /  797.7hPa NW 3.7mph /  6km/h -999.0mph /  -1607.7km/h 30% 0.00in /  0mm
13:44 58.1 °F /  14.5 °C 26.0 °F /  -3.3 °C 23.55in /  797.4hPa NW 4.7mph /  7.6km/h -999.0mph /  -1607.7km/h 29% 0.00in /  0mm
14:00 57.7 °F /  14.3 °C 27.3 °F /  -2.6 °C 23.54in /  797.1hPa ENE 4.2mph /  6.8km/h -999.0mph /  -1607.7km/h 31% 0.00in /  0mm
14:15 59.0 °F /  15 °C 28.4 °F /  -2 °C 23.54in /  797.1hPa NW 5.3mph /  8.5km/h -999.0mph /  -1607.7km/h 31% 0.00in /  0mm
14:30 59.2 °F /  15.1 °C 27.8 °F /  -2.3 °C 23.54in /  797.1hPa NNE 3.2mph /  5.1km/h -999.0mph /  -1607.7km/h 30% 0.00in /  0mm
14:45 59.7 °F /  15.4 °C 28.2 °F /  -2.1 °C 23.54in /  797.1hPa NW 3.7mph /  6km/h -999.0mph /  -1607.7km/h 30% 0.00in /  0mm
15:00 58.8 °F /  14.9 °C 29.0 °F /  -1.7 °C 23.53in /  796.7hPa NNW 4.2mph /  6.8km/h -999.0mph /  -1607.7km/h 32% 0.00in /  0mm
15:16 58.6 °F /  14.8 °C 30.3 °F /  -0.9 °C 23.53in /  796.7hPa SSW 2.7mph /  4.3km/h -999.0mph /  -1607.7km/h 34% 0.00in /  0mm
15:46 59.4 °F /  15.2 °C 28.7 °F /  -1.8 °C 23.52in /  796.4hPa NNW 3.7mph /  6km/h -999.0mph /  -1607.7km/h 31% 0.00in /  0mm
16:01 57.4 °F /  14.1 °C 28.5 °F /  -1.9 °C 23.52in /  796.4hPa NW 4.7mph /  7.6km/h -999.0mph /  -1607.7km/h 33% 0.00in /  0mm
16:16 57.2 °F /  14 °C 29.8 °F /  -1.2 °C 23.52in /  796.4hPa NNE 3.7mph /  6km/h -999.0mph /  -1607.7km/h 35% 0.00in /  0mm
16:32 57.2 °F /  14 °C 29.8 °F /  -1.2 °C 23.52in /  796.4hPa Calm   -999.0mph /  -1607.7km/h 35% 0.00in /  0mm
16:47 57.0 °F /  13.9 °C 31.0 °F /  -0.6 °C 23.53in /  796.7hPa WSW 2.2mph /  3.5km/h -999.0mph /  -1607.7km/h 37% 0.00in /  0mm
17:02 57.2 °F /  14 °C 29.8 °F /  -1.2 °C 23.53in /  796.7hPa WNW 3.2mph /  5.1km/h -999.0mph /  -1607.7km/h 35% 0.00in /  0mm
17:17 59.4 °F /  15.2 °C 30.3 °F /  -0.9 °C 23.53in /  796.7hPa NW 3.7mph /  6km/h -999.0mph /  -1607.7km/h 33% 0.00in /  0mm
17:32 60.3 °F /  15.7 °C 31.8 °F /  -0.1 °C 23.53in /  796.7hPa NW 3.2mph /  5.1km/h -999.0mph /  -1607.7km/h 34% 0.00in /  0mm
17:48 55.4 °F /  13 °C 29.5 °F /  -1.4 °C 23.53in /  796.7hPa NNW 3.2mph /  5.1km/h -999.0mph /  -1607.7km/h 37% 0.00in /  0mm
18:03 52.9 °F /  11.6 °C 29.8 °F /  -1.2 °C 23.53in /  796.7hPa NW 1.7mph /  2.7km/h -999.0mph /  -1607.7km/h 41% 0.00in /  0mm
18:18 51.4 °F /  10.8 °C 27.9 °F /  -2.3 °C 23.53in /  796.7hPa Calm   -999.0mph /  -1607.7km/h 40% 0.00in /  0mm
18:33 50.5 °F /  10.3 °C 28.8 °F /  -1.8 °C 23.53in /  796.7hPa Calm   -999.0mph /  -1607.7km/h 43% 0.00in /  0mm
18:49 49.6 °F /  9.8 °C 29.1 °F /  -1.6 °C 23.54in /  797.1hPa Calm   -999.0mph /  -1607.7km/h 45% 0.00in /  0mm
19:04 48.4 °F /  9.1 °C 25.2 °F /  -3.8 °C 23.54in /  797.1hPa Calm   -999.0mph /  -1607.7km/h 40% 0.00in /  0mm
19:19 46.8 °F /  8.2 °C 24.9 °F /  -3.9 °C 23.54in /  797.1hPa Calm   -999.0mph /  -1607.7km/h 42% 0.00in /  0mm
19:34 44.8 °F /  7.1 °C 24.2 °F /  -4.3 °C 23.54in /  797.1hPa Calm   -999.0mph /  -1607.7km/h 44% 0.00in /  0mm
19:49 43.5 °F /  6.4 °C 24.1 °F /  -4.4 °C 23.54in /  797.1hPa Calm   -999.0mph /  -1607.7km/h 46% 0.00in /  0mm
20:05 41.9 °F /  5.5 °C 27.8 °F /  -2.3 °C 23.54in /  797.1hPa Calm   -999.0mph /  -1607.7km/h 57% 0.00in /  0mm
20:20 41.0 °F /  5 °C 26.9 °F /  -2.8 °C 23.55in /  797.4hPa Calm   -999.0mph /  -1607.7km/h 57% 0.00in /  0mm
20:35 40.3 °F /  4.6 °C 26.3 °F /  -3.2 °C 23.55in /  797.4hPa Calm   -999.0mph /  -1607.7km/h 57% 0.00in /  0mm
20:50 39.2 °F /  4 °C 26.9 °F /  -2.8 °C 23.55in /  797.4hPa Calm   -999.0mph /  -1607.7km/h 61% 0.00in /  0mm
21:05 38.5 °F /  3.6 °C 27.0 °F /  -2.8 °C 23.56in /  797.7hPa Calm   -999.0mph /  -1607.7km/h 63% 0.00in /  0mm
21:21 37.6 °F /  3.1 °C 26.5 °F /  -3.1 °C 23.56in /  797.7hPa Calm   -999.0mph /  -1607.7km/h 64% 0.00in /  0mm
21:36 36.9 °F /  2.7 °C 25.9 °F /  -3.4 °C 23.56in /  797.7hPa Calm   -999.0mph /  -1607.7km/h 64% 0.00in /  0mm
21:51 36.3 °F /  2.4 °C 25.7 °F /  -3.5 °C 23.56in /  797.7hPa Calm   -999.0mph /  -1607.7km/h 65% 0.00in /  0mm
22:06 35.8 °F /  2.1 °C 25.9 °F /  -3.4 °C 23.56in /  797.7hPa Calm   -999.0mph /  -1607.7km/h 67% 0.00in /  0mm
22:21 35.2 °F /  1.8 °C 26.4 °F /  -3.1 °C 23.57in /  798.1hPa Calm   -999.0mph /  -1607.7km/h 70% 0.00in /  0mm
22:37 34.7 °F /  1.5 °C 26.3 °F /  -3.2 °C 23.57in /  798.1hPa Calm   -999.0mph /  -1607.7km/h 71% 0.00in /  0mm
22:52 34.2 °F /  1.2 °C 25.8 °F /  -3.4 °C 23.56in /  797.7hPa Calm   -999.0mph /  -1607.7km/h 71% 0.00in /  0mm
23:07 33.8 °F /  1 °C 25.4 °F /  -3.7 °C 23.56in /  797.7hPa Calm   -999.0mph /  -1607.7km/h 71% 0.00in /  0mm
23:22 33.1 °F /  0.6 °C 25.7 °F /  -3.5 °C 23.56in /  797.7hPa Calm   -999.0mph /  -1607.7km/h 74% 0.00in /  0mm
23:38 32.7 °F /  0.4 °C 25.7 °F /  -3.5 °C 23.56in /  797.7hPa Calm   -999.0mph /  -1607.7km/h 75% 0.00in /  0mm
23:53 32.5 °F /  0.3 °C 25.8 °F /  -3.4 °C 23.56in /  797.7hPa Calm   -999.0mph /  -1607.7km/h 76% 0.00in /  0mm
Big Bear CA Weather